Bottineau, North Dakota
Current Conditions -  °F | °C
As of 3:15 PM on Sunday 21 Dec 2014 (Local Time) from KRUG Reporting Station
Clear Clear  
Wind Chill: 18°   Ceiling: Unl
Heat Index: 28°   Visibility: 8mi
Dew Point: 28°   Wind: 13mph
Humidity: 100%   Direction: 120°ESE
Pressure: 29.46"   Gusts: NA
Location:  48.83°N, 100.45°W
Report Text: KRUG 212115Z AUTO 12011KT 8SM CLR M02/M02 A2946 RMK AO2
Loading
Personal Weather Stations






























Interactive Weather Map New forecast layout! Learn more

10-Day Weather Forecast

Advertisements
Track Severe Weather on mobile